Tiempo atmosférico en la estación meteorológica de Viso Del Marqués, Ciudad Real (778 m.)



Fecha
DESCASC
Temp. máxima en grados centígrados (hora)
DESCASC
Temp. mínima en grados centígrados (hora)
DESCASC
Temp. media en grados centígrados
DESCASC
Racha de viento máxima en m/sg (hora)
DESCASC
Velocidad máxima media en intervalos de 10 minutos(hora)
DESCASC
Precipitaciones diarias en mm
DESCASC
Precipitaciones de 00:00 a 06:00 en mm
DESCASC
Precipitaciones de 06:00 a 12:00 en mm
DESCASC
Precipitaciones de 12:00 a 18:00 en mm
DESCASC
Precipitaciones de 18:00 a 24:00 en mm
DESCASC
17-10-2019 20.5 (17:50) 3.8 (08:20) 12.1 6.11 (13:10) 3.33 (19:20) 0 0 0 0 0
16-10-2019 19.2 (16:50) 3.4 (08:00) 11.3 6.39 (17:30) 4.17 (18:10) 0 0 0 0 0
15-10-2019 15.7 (17:40) 3.2 (08:30) 9.4 5.83 (18:00) 3.89 (02:10) 0.1 0 0.1 0 0
14-10-2019 18.1 (03:30) 7.7 (22:30) 12.9 18.61 (04:50) 10.83 (07:40) 2.3 0 0 0 2.3
13-10-2019 24 (16:00) 13.3 (00:00) 18.7 11.11 (15:20) 7.78 (15:20) 0 0 0 0 0
12-10-2019 25.8 (17:30) 14.7 (00:00) 20.2 8.06 (23:59) 5.83 (23:59) 0 0 0 0 0
11-10-2019 25.3 (16:00) 13 (00:00) 19.1 6.11 (06:30) 5 (06:50) 0 0 0 0 0
10-10-2019 27.4 (16:30) 12.4 (00:00) 19.9 7.5 (15:00) 4.44 (19:10) 0 0 0 0 0
09-10-2019 28.7 (15:50) 12.4 (00:00) 20.6 5.83 (19:30) 3.61 (19:40) 0 0 0 0 0
08-10-2019 28.9 (16:30) 10.2 (00:00) 19.5 5.28 (17:10) 2.5 (18:10) 0 0 0 0 0
07-10-2019 25.8 (16:50) 10.9 (00:00) 18.3 5.56 (13:30) 3.06 (13:00) 0 0 0 0 0
06-10-2019 26.4 (16:50) 9.3 (00:00) 17.8 5.83 (17:20) 3.33 (17:20) 0 0 0 0 0
05-10-2019 26.3 (17:30) 10 (00:00) 18.1 6.67 (15:40) 3.61 (21:00) 0 0 0 0 0
04-10-2019 25.8 (16:40) 8.4 (00:00) 17.1 6.94 (17:50) 4.17 (17:30) 0 0 0 0 0
03-10-2019 24.1 (17:30) 8.8 (00:00) 16.5 7.22 (15:40) 3.61 (20:00) 0 0 0 0 0
02-10-2019 23.4 (17:00) 10.7 (00:00) 17 6.94 (18:50) 4.44 (02:10) 0 0 0 0 0
01-10-2019 25.3 (15:50) 14.5 (00:00) 19.9 10.83 (14:10) 5.83 (18:30) 0 0 0 0 0
30-09-2019 27.7 (16:20) 10.9 (00:00) 19.3 7.5 (21:10) 5.28 (21:10) 0 0 0 0 0
29-09-2019 29.2 (16:10) 11.9 (00:00) 20.6 8.06 (19:10) 5.28 (17:50) 0 0 0 0 0
28-09-2019 27.7 (17:30) 11.6 (00:00) 19.7 5.83 (15:40) 3.61 (19:10) 0 0 0 0 0
27-09-2019 27.5 (17:20) 10.9 (00:00) 19.2 5.83 (15:10) 3.61 (19:50) 0 0 0 0 0
26-09-2019 26.5 (17:30) 10.3 (00:00) 18.4 7.22 (16:00) 3.61 (18:50) 0 0 0 0 0
25-09-2019 23.8 (17:00) 13.3 (00:00) 18.5 7.22 (14:30) 3.89 (15:20) 0 0 0 0 0
24-09-2019 26.1 (17:20) 10.5 (00:00) 18.3 8.61 (18:10) 4.44 (18:30) 0 0 0 0 0
23-09-2019 22.9 (18:00) 8.5 (00:00) 15.7 4.72 (16:30) 2.5 (20:20) 0 0 0 0 0
22-09-2019 19.1 (15:10) 11.8 (00:00) 15.5 10 (11:10) 7.5 (11:10) 0 0 0 0 0
21-09-2019 19.1 (15:20) 14 (00:00) 16.6 11.39 (17:20) 7.78 (17:20) 0.5 0.5 0 0 0
20-09-2019 23.8 (15:50) 14.6 (00:00) 19.2 7.78 (18:10) 5.83 (18:10) 0 0 0 0 0

Gráficas

Temp. máximas Temp. mínimas Temp. medias Precipitaciones Rachas de viento máximas Velocidades máximas media en intervalos de 10 minutos

Datos horarios

Fecha y hora oficial Temperatura (ºC) Velocidad del viento (km/h) Dirección del viento Racha (km/h) Dirección de racha Precipitación (mm) Presión (hPa) Tendencia (hPa) Humedad (%)
2019-10-19 23:00:00 11.8 31 Sudoeste 49 Sur 2 915.7 -0.9 59
2019-10-19 22:00:00 11.6 22 Sur 39 Sur 0.8 915.9 -1 63
2019-10-19 21:00:00 13.6 25 Sur 37 Sur 0 915.9 -1.6 43
2019-10-19 20:00:00 14.7 6 Sudeste 24 Sur 0 916.6 -1.4 40
2019-10-19 19:00:00 14.8 11 Sur 35 Sur 0 916.9 -1.4 36
2019-10-19 18:00:00 15.9 21 Sudoeste 41 Sudoeste 0 917.5 -1.4 34
2019-10-19 17:00:00 14.8 28 Sudoeste 48 Sudoeste 0 918 -2 36
2019-10-19 16:00:00 15 31 Sudoeste 50 Sudoeste 0 918.3 -2.3 39
2019-10-19 15:00:00 14.6 27 Sur 46 Sur 0 918.9 -2.4 39
2019-10-19 14:00:00 13.1 21 Sudoeste 34 Sudoeste 0 920 -1 46
2019-10-19 13:00:00 13.6 23 Sudoeste 32 Sudoeste 0 920.6 -0.5 44
2019-10-19 12:00:00 12.7 23 Sudoeste 32 Sudoeste 0 921.3 0.2 50
2019-10-19 11:00:00 11.9 16 Sur 25 Sur 0 921 0 61
2019-10-19 10:00:00 11.7 19 Sudoeste 24 Sudoeste 0 921.1 -0.4 57
2019-10-19 09:00:00 11.6 9 Sur 19 Sudoeste 0 921.1 -0.5 61
2019-10-19 08:00:00 11.4 14 Sudoeste 21 Sudoeste 0 921 -0.6 58
2019-10-19 07:00:00 12.1 8 Sudoeste 22 Sudoeste 0 921.5 -0.8 53
2019-10-19 06:00:00 11.5 9 Sudoeste 24 Sudoeste 0 921.6 -1 56
2019-10-19 05:00:00 11.4 13 Sudoeste 23 Sudoeste 0 921.6 -1.8 57
2019-10-19 04:00:00 11.5 16 Sudoeste 29 Sudoeste 0 922.3 -1.6 55
2019-10-19 03:00:00 12 22 Sudoeste 28 Sudoeste 0 922.6 -1.4 53
2019-10-19 02:00:00 12.4 13 Sudoeste 27 Sudoeste 0 923.4 -0.9 57
2019-10-19 01:00:00 12.3 17 Sudoeste 28 Sudoeste 0 923.9 -0.4 59
2019-10-19 00:00:00 12.8 17 Sudoeste 26 Sudoeste 0 924 0 56
2019-10-18 23:00:00 13 12 Sudoeste 20 Sudoeste 0 924.3 0.8 54
2019-10-18 22:00:00 13.7 12 Sur 25 Sur 0 924.3 0.3 52
2019-10-18 21:00:00 13.8 18 Sur 22 Sur 0 924 -0.3 48
2019-10-18 20:00:00 14.7 16 Sur 23 Sur 0 923.5 -1.4 42
2019-10-18 19:00:00 17 14 Sur 26 Sudoeste 0 924 -1.1 37
2019-10-18 18:00:00 17.4 19 Sur 25 Sur 0 924.3 -1.4 36
2019-10-18 17:00:00 19 14 Sudoeste 33 Sudoeste 0 924.9 -1.3 33
2019-10-18 16:00:00 18.2 16 Sudoeste 25 Sur 0 925.1 -2 34
2019-10-18 15:00:00 18.6 12 Sudoeste 28 Sudoeste 0 925.7 -1.2 34
2019-10-18 14:00:00 18.2 15 Sudoeste 27 Sudoeste 0 926.2 -1.3 35
2019-10-18 13:00:00 18 14 Sudoeste 28 Sudoeste 0 927.1 0 35
2019-10-18 12:00:00 16.8 6 Sudeste 17 Este 0 926.9 0.4 36
2019-10-18 11:00:00 15.3 3 Este 7 Sudeste 0 927.5 0.6 39
2019-10-18 10:00:00 9.8 4 Norte 9 Nordeste 0 927.1 0.2 42
2019-10-18 09:00:00 8.3 2 Nordeste 10 Nordeste 0 926.5 -0.5 44
2019-10-18 08:00:00 8.1 6 Norte 9 Nordeste 0 926.9 0.3 43
2019-10-18 07:00:00 8.2 5 Nordeste 8 Nordeste 0 926.9 -0.3 41
2019-10-18 06:00:00 8.6 6 Nordeste 7 Nordeste 0 927 -0.6 41
2019-10-18 05:00:00 9.9 0 Calma 6 Noroeste 0 926.6 -1 39
2019-10-18 04:00:00 11.2 0 Calma 7 Norte 0 927.2 -0.8 38
2019-10-18 03:00:00 11 2 Norte 5 Nordeste 0 927.6 -0.6 37
2019-10-18 02:00:00 11.1 0 Calma 4 Nordeste 0 927.6 -0.7 35
2019-10-18 01:00:00 10.7 4 Nordeste 5 Nordeste 0 928 0.1 34
2019-10-18 00:00:00 13 0 Calma 7 Oeste 0 928.2 0.6 31
2019-10-17 23:00:00 13.5 3 Norte 6 Nordeste 0 928.3 1.3 30
2019-10-17 22:00:00 13.6 0 Calma 8 Oeste 0 927.9 1.4 28
2019-10-17 21:00:00 15.1 0 Calma 11 Oeste 0 927.6 1.2 27
2019-10-17 20:00:00 14.8 5 Sur 19 Sudeste 0 927 0.7 25
2019-10-17 19:00:00 18 12 Sudeste 18 Sudeste 0 926.5 -0.3 22
2019-10-17 18:00:00 19.2 7 Sur 17 Oeste 0 926.4 -0.6 22
2019-10-17 17:00:00 19.9 6 Oeste 19 Noroeste 0 926.3 -1.6 22
2019-10-17 16:00:00 18 7 Noroeste 17 Noroeste 0 926.8 -1.5 21
2019-10-17 15:00:00 17.9 7 Sudeste 14 Sudoeste 0 927 -1.8 22
2019-10-17 14:00:00 17.3 4 Sudoeste 22 Noroeste 0 927.9 -0.8 22
2019-10-17 13:00:00 16.4 9 Oeste 18 Oeste 0 928.3 0.1 23
2019-10-17 12:00:00 15.7 6 Oeste 12 Oeste 0 928.8 1.3 27
2019-10-17 11:00:00 12.5 0 Calma 5 Norte 0 928.7 1.7 31
2019-10-17 10:00:00 10.6 0 Calma 3 Sur 0 928.2 1.5 38
2019-10-17 09:00:00 5.5 0 Calma 5 Nordeste 0 927.5 1.3 47
2019-10-17 08:00:00 5 5 Nordeste 6 Norte 0 927 0.4 45
2019-10-17 07:00:00 5.9 2 Noroeste 4 Norte 0 926.7 -0.5 43
2019-10-17 06:00:00 6.1 2 Nordeste 5 Nordeste 0 926.2 -1.1 42
2019-10-17 05:00:00 6.1 3 Sur 4 Sur 0 926.6 -0.4 40
2019-10-17 04:00:00 7.7 0 Calma 4 Sudoeste 0 927.2 -0.3 37
2019-10-17 03:00:00 8.6 0 Calma 3 Sudoeste 0 927.3 -0.5 34
2019-10-17 02:00:00 9.4 0 Calma 3 Sudoeste 0 927 -0.4 31
2019-10-17 01:00:00 8.9 2 Sudoeste 4 Sudoeste 0 927.5 -0.1 30
2019-10-17 00:00:00 11 3 Sudoeste 5 Sudoeste 0 927.8 1.3 27
2019-10-16 23:00:00 11.2 4 Sudoeste 9 Oeste 0 927.4 1.4 26
2019-10-16 22:00:00 12.7 6 Oeste 16 Oeste 0 927.6 1.9 24
2019-10-16 21:00:00 13.4 5 Noroeste 10 Noroeste 0 926.5 0.5 23
2019-10-16 20:00:00 13.6 7 Sudoeste 12 Sudoeste 0 926 0.1 23
2019-10-16 19:00:00 16.3 6 Sudeste 20 Este 0 925.7 -0.8 20
2019-10-16 18:00:00 17.1 14 Sudeste 23 Sudeste 0 926 -1 20
2019-10-16 17:00:00 18.9 4 Sur 16 Sudoeste 0 925.9 -2.2 18
2019-10-16 16:00:00 18.7 6 Oeste 15 Oeste 0 926.5 -2.5 19
2019-10-16 15:00:00 16.2 4 Norte 12 Sudoeste 0 927 -2.3 20
2019-10-16 14:00:00 15.9 3 Norte 12 Noroeste 0 928.1 -1.2 22
2019-10-16 13:00:00 15.4 3 Sudoeste 11 Noroeste 0 929 0.1 25
2019-10-16 12:00:00 13.2 3 Nordeste 9 Norte 0 929.3 0.8 30
2019-10-16 11:00:00 11 4 Nordeste 8 Nordeste 0 929.3 1 37
2019-10-16 10:00:00 6.2 5 Nordeste 7 Norte 0 928.9 0.6 50
2019-10-16 09:00:00 3.9 4 Nordeste 6 Nordeste 0 928.5 0.4 53
2019-10-16 08:00:00 3.5 3 Norte 4 Norte 0 928.3 -0.4 54
2019-10-16 07:00:00 4.9 0 Calma 4 Norte 0 928.3 -0.4 50
2019-10-16 06:00:00 5.7 2 Sur 4 Sur 0 928.1 -1 50
2019-10-16 05:00:00 5.8 3 Oeste 5 Oeste 0 928.7 -0.5 47
2019-10-16 04:00:00 5.7 3 Sudoeste 6 Oeste 0 928.7 -0.7 47
2019-10-16 03:00:00 6 4 Sudoeste 9 Oeste 0 929.1 -0.4 43
2019-10-16 02:00:00 6.5 6 Oeste 10 Oeste 0 929.2 -0.3 39
2019-10-16 01:00:00 6.5 7 Oeste 12 Oeste 0 929.4 0.2 39
2019-10-16 00:00:00 7.4 5 Sudoeste 11 Oeste 0 929.5 1 38
2019-10-15 23:00:00 9.1 4 Oeste 9 Oeste 0 929.5 1.4 34
2019-10-15 22:00:00 10.1 4 Oeste 10 Oeste 0 929.2 1 33
2019-10-15 21:00:00 10.1 10 Oeste 13 Oeste 0 928.5 0.9 29
2019-10-15 20:00:00 12.9 3 Noroeste 11 Oeste 0 928.1 0.6 21
2019-10-15 19:00:00 14.5 8 Oeste 17 Noroeste 0 928.2 0.3 17
2019-10-15 18:00:00 14.5 10 Noroeste 21 Oeste 0 927.6 -0.8 19
2019-10-15 17:00:00 14.7 10 Noroeste 19 Noroeste 0 927.5 -1.5 20
2019-10-15 16:00:00 14.3 6 Norte 15 Noroeste 0 927.9 -1.4 22
2019-10-15 15:00:00 14.4 4 Sudoeste 12 Sur 0 928.4 -1.2 26
2019-10-15 14:00:00 12.7 3 Sur 12 Sur 0 929 -0.5 31
2019-10-15 13:00:00 10.9 3 Noroeste 10 Nordeste 0 929.3 0.4 34
2019-10-15 12:00:00 10.3 4 Oeste 9 Noroeste 0 929.6 1 39
2019-10-15 11:00:00 8.1 6 Noroeste 11 Noroeste 0.1 929.5 2 44
2019-10-15 10:00:00 6.5 3 Noroeste 6 Oeste 0 928.9 0.8 54
2019-10-15 09:00:00 4.2 4 Sudoeste 8 Sudoeste 0 928.6 1.2 61
2019-10-15 08:00:00 3.5 3 Sur 12 Oeste 0 927.5 0.3 62
2019-10-15 07:00:00 5.6 5 Oeste 11 Oeste 0 928.1 0.6 57
2019-10-15 06:00:00 5.7 5 Sudoeste 14 Sudoeste 0 927.4 -0.1 58
2019-10-15 05:00:00 5.7 12 Sudoeste 14 Sudoeste 0 927.2 0.2 61
2019-10-15 04:00:00 7.2 6 Oeste 12 Sudoeste 0 927.5 0.7 62
2019-10-15 03:00:00 6.6 9 Oeste 19 Sudoeste 0 927.5 1.1 63
2019-10-15 02:00:00 5.9 13 Sudoeste 17 Sudoeste 0 927 0.7 64
2019-10-15 01:00:00 7.4 6 Oeste 18 Oeste 0 926.8 0.7 63
2019-10-15 00:00:00 7.9 9 Oeste 21 Oeste 0.2 926.4 1.3 61
2019-10-14 23:00:00 8.3 8 Oeste 28 Noroeste 0.9 926.3 2.5 63
2019-10-14 22:00:00 8.2 21 Oeste 34 Oeste 1.2 926.1 2.8 63
2019-10-14 21:00:00 10.1 18 Oeste 41 Oeste 0 925.1 2.3 59
2019-10-14 20:00:00 13.5 27 Sudoeste 45 Sudoeste 0 923.8 1.1 36
2019-10-14 19:00:00 14 26 Sudoeste 48 Sudoeste 0 923.3 1 35
2019-10-14 18:00:00 15.6 32 Sudoeste 50 Sudoeste 0 922.8 0.4 34
2019-10-14 17:00:00 15.9 33 Sudoeste 48 Sudoeste 0 922.7 -0.7 36
2019-10-14 16:00:00 15.8 34 Sudoeste 46 Sudoeste 0 922.3 -1.4 37
2019-10-14 15:00:00 15.8 30 Sudoeste 49 Sudoeste 0 922.4 -1.3 37
2019-10-14 14:00:00 16.5 32 Sudoeste 48 Sudoeste 0 923.4 -0.5 38
2019-10-14 13:00:00 15.8 25 Sudoeste 40 Sudoeste 0 923.7 0.1 40
2019-10-14 12:00:00 14.2 28 Sudoeste 44 Sudoeste 0 923.7 0.9 48
2019-10-14 11:00:00 14.6 28 Sudoeste 47 Sur 0 923.9 1.9 45
2019-10-14 10:00:00 13.8 27 Sudoeste 45 Sudoeste 0 923.6 2.3 49
2019-10-14 09:00:00 13.2 30 Sudoeste 57 Sudoeste 0 922.8 2.5 54
2019-10-14 08:00:00 13 37 Sur 54 Sudoeste 0 922 1.4 53
2019-10-14 07:00:00 15.9 31 Sudoeste 44 Sudoeste 0 921.3 0.5 32
2019-10-14 06:00:00 17.6 27 Sur 38 Sur 0 920.3 -1.1 29
2019-10-14 05:00:00 15.4 21 Sur 67 Sudeste 0 920.6 -1.7 33
2019-10-14 04:00:00 17.5 26 Sur 33 Sur 0 920.8 -2 29
2019-10-14 03:00:00 17.8 21 Sur 29 Sur 0 921.4 -1.8 29
2019-10-14 02:00:00 16.7 17 Sudeste 24 Sudeste 0 922.3 -1.1 29
2019-10-14 01:00:00 16.6 16 Sudeste 23 Sudeste 0 922.8 -1 30
2019-10-14 00:00:00 17.4 19 Sudeste 23 Sudeste 0 923.2 -0.4 31
2019-10-13 23:00:00 17.5 15 Sudeste 19 Sudeste 0 923.4 -0.2 30
2019-10-13 22:00:00 17.4 13 Sur 18 Sur 0 923.8 0.3 29
2019-10-13 21:00:00 17.8 12 Sudeste 17 Sudeste 0 923.6 0 28
2019-10-13 20:00:00 19 10 Sur 17 Sur 0 923.6 0.1 23
2019-10-13 19:00:00 21.9 17 Sur 32 Sur 0 923.5 -0.2 20
2019-10-13 18:00:00 22.8 22 Sur 35 Sur 0 923.6 -0.8 20
2019-10-13 17:00:00 23.3 22 Sur 36 Sur 0 923.5 -1.6 19
2019-10-13 16:00:00 24 27 Sur 40 Sur 0 923.7 -1.7 20
2019-10-13 15:00:00 22.9 23 Sur 38 Sudoeste 0 924.4 -1.5 20
2019-10-13 14:00:00 22.8 22 Sur 35 Sudoeste 0 925.1 -0.6 23
2019-10-13 13:00:00 21.3 19 Sur 29 Sur 0 925.4 0.2 24
2019-10-13 12:00:00 20.5 9 Sudeste 19 Sudeste 0 925.9 1.4 33
2019-10-13 11:00:00 19.5 6 Sudoeste 25 Sur 0 925.7 1.1 34
2019-10-13 10:00:00 16.3 15 Sur 21 Sur 0 925.2 1 50
2019-10-13 09:00:00 14.9 11 Sur 24 Sur 0 924.5 0.3 52
2019-10-13 08:00:00 13.6 6 Sudeste 21 Sudeste 0 924.6 0.1 55
2019-10-13 07:00:00 13.7 10 Este 21 Sur 0 924.2 -0.5 54
2019-10-13 06:00:00 15.6 2 Sur 14 Sudoeste 0 924.2 -0.7 48
2019-10-13 05:00:00 14.8 0 Calma 11 Oeste 0 924.5 -0.6 48
2019-10-13 04:00:00 16.4 0 Calma 21 Sudoeste 0 924.7 -0.3 45
2019-10-13 03:00:00 16.4 5 Sudoeste 21 Sudoeste 0 924.9 -0.1 43
2019-10-13 02:00:00 17.8 4 Oeste 13 Sur 0 925.1 0.4 40
2019-10-13 01:00:00 18.1 9 Sudoeste 31 Sudoeste 0 925 0.7 36
2019-10-13 00:00:00 18.1 21 Sudoeste 29 Sudoeste 0 925 1 32
2019-10-12 23:00:00 18.2 10 Sudoeste 18 Sudoeste 0 924.7 1.3 29
2019-10-12 22:00:00 19 5 Sudoeste 20 Sur 0 924.3 0.9 27
2019-10-12 21:00:00 19.2 12 Sur 17 Sur 0 924 0.6 26
2019-10-12 20:00:00 19.7 13 Sur 18 Sur 0 923.4 -0.6 25
2019-10-12 19:00:00 22.7 13 Sur 18 Sudeste 0 923.4 -0.7 22
2019-10-12 18:00:00 25.2 9 Sudeste 17 Sudeste 0 923.4 -1.2 20
2019-10-12 17:00:00 24.8 3 Nordeste 13 Nordeste 0 924 -1.8 21
2019-10-12 16:00:00 24.6 5 Este 15 Este 0 924.1 -2.1 23
2019-10-12 15:00:00 23.7 4 Este 13 Sudeste 0 924.6 -1.9 28
2019-10-12 14:00:00 22.4 5 Nordeste 10 Norte 0 925.8 -0.5 29
2019-10-12 13:00:00 20.9 4 Nordeste 9 Nordeste 0 926.2 0.7 32
2019-10-12 12:00:00 19.5 0 Calma 8 Sur 0 926.5 1.2 35
2019-10-12 11:00:00 17.6 0 Calma 14 Sudoeste 0 926.3 1.2 40
2019-10-12 10:00:00 16.7 13 Este 20 Este 0 925.5 0.1 40
2019-10-12 09:00:00 15.2 12 Este 17 Sudeste 0 925.3 -0.2 41
2019-10-12 08:00:00 15.8 8 Este 15 Este 0 925.1 -0.6 37
2019-10-12 07:00:00 15 5 Nordeste 12 Este 0 925.4 -0.3 36
2019-10-12 06:00:00 16.5 5 Este 12 Sudeste 0 925.5 -0.9 34
2019-10-12 05:00:00 15.9 6 Este 15 Este 0 925.7 -1.1 35
2019-10-12 04:00:00 15.8 4 Nordeste 7 Sur 0 925.7 -1.3 35
2019-10-12 03:00:00 16.7 5 Nordeste 7 Nordeste 0 926.4 -0.5 34
2019-10-12 02:00:00 17.8 0 Calma 8 Norte 0 926.8 -0.1 32
2019-10-12 01:00:00 17.7 4 Norte 18 Sur 0 927 0.6 32
2019-10-12 00:00:00 19.6 9 Sudeste 20 Sudoeste 0 926.9 0.6 30
2019-10-11 23:00:00 18.9 0 Calma 9 Sudeste 0 926.9 0.7 30
2019-10-11 22:00:00 19.7 3 Sur 9 Sur 0 926.4 0.1 30
2019-10-11 21:00:00 18.9 5 Sudoeste 14 Sur 0 926.3 -0.1 30
2019-10-11 20:00:00 19.8 12 Sur 14 Sur 0 926.2 -0.2 27
2019-10-11 19:00:00 21.5 8 Sudoeste 16 Sur 0 926.3 -0.2 25
2019-10-11 18:00:00 23.4 12 Sur 21 Sur 0 926.4 -0.9 22
2019-10-11 17:00:00 23.5 13 Sudoeste 21 Sudoeste 0 926.4 -1.5 22
2019-10-11 16:00:00 24.2 8 Sur 19 Sudeste 0 926.5 -2.1 22
2019-10-11 15:00:00 23.9 2 Sur 15 Nordeste 0 927.3 -1.8 27
2019-10-11 14:00:00 23.3 7 Este 19 Este 0 927.9 -1 28
2019-10-11 13:00:00 22.8 6 Sur 15 Sur 0 928.6 -0.5 29
2019-10-11 12:00:00 22.5 0 Calma 7 Norte 0 929.1 0.5 33
2019-10-11 11:00:00 20 2 Nordeste 6 Norte 0 928.9 1.3 39
2019-10-11 10:00:00 15.5 4 Norte 6 Norte 0 929.1 1.8 48
2019-10-11 09:00:00 14 0 Calma 6 Noroeste 0 928.6 1.2 53
2019-10-11 08:00:00 14.1 3 Sur 20 Sudeste 0 927.6 0.1 51
2019-10-11 07:00:00 14.2 17 Sudeste 22 Sudeste 0 927.3 -0.6 52
2019-10-11 06:00:00 15 17 Sudeste 19 Sudeste 0 927.4 -0.1 50
2019-10-11 05:00:00 15.3 11 Sudeste 17 Sudeste 0 927.5 0.1 47
2019-10-11 04:00:00 16.4 3 Nordeste 6 Nordeste 0 927.9 0.1 44
2019-10-11 03:00:00 16.7 4 Sur 12 Este 0 927.5 -0.3 43
2019-10-11 02:00:00 17.8 9 Sudeste 17 Sudeste 0 927.4 -0.3 40
2019-10-11 01:00:00 17.7 14 Sudeste 19 Sudeste 0 927.8 0.7 37
2019-10-11 00:00:00 19.5 3 Sudeste 13 Sur 0 927.8 1.1 34
2019-10-10 23:00:00 20.3 4 Sur 10 Sudoeste 0 927.7 1.4 32
2019-10-10 22:00:00 20 8 Sudoeste 11 Sur 0 927.1 0.6 32
2019-10-10 21:00:00 20.9 4 Sur 10 Sudoeste 0 926.7 0.3 30
2019-10-10 20:00:00 21.5 6 Sudoeste 21 Sur 0 926.3 0.2 28
2019-10-10 19:00:00 24.1 14 Sur 18 Sudoeste 0 926.5 0.3 26
2019-10-10 18:00:00 26.3 3 Sur 17 Sudoeste 0 926.4 -0.1 24
2019-10-10 17:00:00 26.2 10 Sur 23 Sur 0 926.1 -1.1 24
2019-10-10 16:00:00 25.7 3 Sur 22 Oeste 0 926.2 -1.6 25
2019-10-10 15:00:00 26.6 8 Sur 27 Sur 0 926.5 -1.3 26
2019-10-10 14:00:00 26.1 8 Sur 20 Este 0 927.2 -1 26
2019-10-10 13:00:00 24.7 10 Sur 20 Sur 0 927.8 0.3 28
2019-10-10 12:00:00 23.1 8 Sur 19 Sur 0 927.8 1.1 32
2019-10-10 11:00:00 20.7 0 Calma 5 Norte 0 928.2 1.8 36
2019-10-10 10:00:00 16.4 0 Calma 10 Nordeste 0 927.5 1.1 42
2019-10-10 09:00:00 12.6 7 Nordeste 10 Nordeste 0 926.7 0.5 46
2019-10-10 08:00:00 13.8 5 Este 6 Este 0 926.4 0.4 45
2019-10-10 07:00:00 14.2 3 Sur 4 Sudoeste 0 926.4 0.5 45
2019-10-10 06:00:00 12.7 3 Sur 6 Norte 0 926.2 0 43
2019-10-10 05:00:00 15 3 Nordeste 4 Este 0 926 -0.1 40
2019-10-10 04:00:00 16.3 5 Este 6 Este 0 925.9 -0.3 38
2019-10-10 03:00:00 15.6 4 Sur 5 Sudoeste 0 926.2 0.2 37
2019-10-10 02:00:00 17.2 4 Oeste 7 Sudoeste 0 926.1 0.1 34
2019-10-10 01:00:00 17.9 4 Sudoeste 8 Oeste 0 926.2 0.7 32
2019-10-10 00:00:00 19.6 6 Oeste 9 Oeste 0 926 0.9 30
2019-10-09 23:00:00 20.5 6 Oeste 13 Oeste 0 926 1.9 29
2019-10-09 22:00:00 20.8 6 Sudoeste 9 Sudoeste 0 925.5 1 28
2019-10-09 21:00:00 22.3 3 Sudoeste 12 Sudoeste 0 925.1 0.8 27
2019-10-09 20:00:00 22.8 6 Sur 21 Sur 0 924.1 -0.3 26
2019-10-09 19:00:00 27.5 4 Oeste 15 Sudoeste 0 924.5 -0.3 20
2019-10-09 18:00:00 27.8 4 Oeste 15 Oeste 0 924.3 -0.4 20
2019-10-09 17:00:00 27.3 5 Noroeste 20 Oeste 0 924.4 -1.1 20
2019-10-09 16:00:00 26.8 7 Noroeste 20 Oeste 0 924.8 -1.1 20
2019-10-09 15:00:00 26.9 4 Nordeste 15 Oeste 0 924.7 -1.6 21
2019-10-09 14:00:00 26.7 3 Noroeste 13 Norte 0 925.5 -1 22
2019-10-09 13:00:00 24.9 3 Noroeste 11 Oeste 0 925.9 -0.2 23
2019-10-09 12:00:00 24.4 3 Noroeste 8 Noroeste 0 926.3 0.7 27
2019-10-09 11:00:00 21.7 2 Este 5 Nordeste 0 926.5 1.5 32
2019-10-09 10:00:00 16.3 4 Nordeste 8 Nordeste 0 926.1 0.8 39
2019-10-09 09:00:00 13.3 6 Nordeste 9 Nordeste 0 925.6 0.4 43
2019-10-09 08:00:00 13 6 Nordeste 9 Este 0 925 -0.4 42
2019-10-09 07:00:00 12.9 7 Norte 8 Nordeste 0 925.3 -0.1 41
2019-10-09 06:00:00 14.2 3 Nordeste 8 Este 0 925.2 -0.8 40
2019-10-09 05:00:00 14.5 3 Nordeste 8 Nordeste 0 925.4 -0.6 37
2019-10-09 04:00:00 14.7 5 Nordeste 9 Este 0 925.4 -0.9 36
2019-10-09 03:00:00 15.9 5 Nordeste 6 Nordeste 0 926 -0.1 33
2019-10-09 02:00:00 17.7 0 Calma 7 Oeste 0 926 0 31
2019-10-09 01:00:00 18.6 5 Noroeste 9 Noroeste 0 926.3 0.6 30
2019-10-09 00:00:00 19.5 0 Calma 3 Nordeste 0 926.1 0.5 28
2019-10-08 23:00:00 19.7 3 Nordeste 7 Nordeste 0 926 0.6 28
2019-10-08 22:00:00 20.7 3 Norte 5 Nordeste 0 925.7 0.2 26
2019-10-08 21:00:00 22.4 0 Calma 11 Sudoeste 0 925.6 0.4 25
2019-10-08 20:00:00 22.8 5 Sudoeste 12 Sudoeste 0 925.4 -0.1 23
2019-10-08 19:00:00 26.5 5 Norte 15 Norte 0 925.5 -0.8 20
2019-10-08 18:00:00 26.8 5 Norte 19 Norte 0 925.2 -1.3 20
2019-10-08 17:00:00 26.8 4 Norte 14 Oeste 0 925.5 -1.5 20
2019-10-08 16:00:00 26.9 4 Noroeste 14 Norte 0 926.3 -1.2 20
2019-10-08 15:00:00 26.1 3 Nordeste 14 Noroeste 0 926.5 -1.4 22
2019-10-08 14:00:00 26.6 2 Este 12 Sur 0 927 -0.7 22
2019-10-08 13:00:00 26.3 0 Calma 8 Este 0 927.5 -0.3 24
2019-10-08 12:00:00 22.6 2 Norte 6 Nordeste 0 927.9 0.2 28
2019-10-08 11:00:00 20.7 0 Calma 6 Norte 0 927.7 0 31
2019-10-08 10:00:00 16.8 0 Calma 5 Nordeste 0 927.8 0.6 39
2019-10-08 09:00:00 12.7 6 Nordeste 7 Nordeste 0 927.7 1 42
2019-10-08 08:00:00 12.3 4 Sudoeste 8 Sudoeste 0 927.7 0.5 43
2019-10-08 07:00:00 10.8 3 Sudoeste 10 Sudoeste 0 927.2 -0.3 41
2019-10-08 06:00:00 14.7 0 Calma 9 Sur 0 926.7 -0.6 39
2019-10-08 05:00:00 13 6 Nordeste 9 Sudoeste 0 927.2 -0.2 39
2019-10-08 04:00:00 14.8 3 Noroeste 9 Noroeste 0 927.5 0.1 36
2019-10-08 03:00:00 17.1 0 Calma 8 Este 0 927.3 -0.3 34
2019-10-08 02:00:00 14.4 3 Sudeste 11 Sur 0 927.4 -0.2 35
2019-10-08 01:00:00 17.3 4 Noroeste 7 Sudoeste 0 927.4 0.2 32
2019-10-08 00:00:00 17.3 3 Nordeste 6 Sudeste 0 927.6 0.6 30
2019-10-07 23:00:00 18.3 3 Sudeste 6 Sudoeste 0 927.6 0.6 29
2019-10-07 22:00:00 16.8 6 Sudoeste 8 Sudoeste 0 927.2 0.3 30
2019-10-07 21:00:00 20.7 6 Norte 9 Nordeste 0 927 0.2 25
2019-10-07 20:00:00 22 7 Norte 15 Norte 0 927 0.1 23
2019-10-07 19:00:00 23.3 10 Norte 16 Nordeste 0 926.9 -0.1 22
2019-10-07 18:00:00 24.3 6 Norte 20 Norte 0 926.8 -0.2 21
2019-10-07 17:00:00 24.8 9 Norte 18 Norte 0 926.9 -0.9 22
2019-10-07 16:00:00 25.2 5 Norte 17 Norte 0 927 -1.4 22
2019-10-07 15:00:00 23.7 6 Noroeste 19 Norte 0 927 -1.4 22
2019-10-07 14:00:00 23.1 9 Norte 20 Norte 0 927.8 -0.6 23
2019-10-07 13:00:00 21.4 11 Norte 19 Norte 0 928.4 0.7 24
2019-10-07 12:00:00 20.5 10 Nordeste 15 Nordeste 0 928.4 0.8 25
2019-10-07 11:00:00 18.7 5 Norte 11 Nordeste 0 928.4 0.9 29
2019-10-07 10:00:00 15.4 3 Sudoeste 7 Sudoeste 0 927.7 0.8 34
2019-10-07 09:00:00 13.2 4 Noroeste 6 Noroeste 0 927.6 0.7 37
2019-10-07 08:00:00 12.5 5 Oeste 8 Oeste 0 927.5 0.7 35
2019-10-07 07:00:00 12.1 5 Sudoeste 6 Noroeste 0 926.9 -0.6 35
2019-10-07 06:00:00 14.3 5 Noroeste 7 Noroeste 0 926.9 -1.1 32
2019-10-07 05:00:00 13.4 4 Sudoeste 10 Oeste 0 926.8 -1.2 32
2019-10-07 04:00:00 15.2 7 Oeste 10 Noroeste 0 927.5 -0.5 30
2019-10-07 03:00:00 14.1 8 Oeste 13 Oeste 0 928 -0.3 30
2019-10-07 02:00:00 16.2 9 Oeste 13 Oeste 0 928 -0.2 27
2019-10-07 01:00:00 15.2 6 Sudoeste 14 Oeste 0 928 0.2 27
2019-10-07 00:00:00 17.3 7 Oeste 12 Oeste 0 928.3 1 26
2019-10-06 23:00:00 18.3 10 Oeste 15 Oeste 0 928.2 1.3 26
2019-10-06 22:00:00 18.9 9 Oeste 15 Oeste 0 927.8 1.1 24
2019-10-06 21:00:00 19.3 9 Oeste 14 Sudoeste 0 927.3 0.6 25
2019-10-06 20:00:00 20.7 5 Oeste 15 Noroeste 0 926.9 0.2 19
2019-10-06 19:00:00 24.9 7 Oeste 20 Sudoeste 0 926.7 -0.8 17
2019-10-06 18:00:00 25.6 8 Oeste 21 Noroeste 0 926.7 -1 17
2019-10-06 17:00:00 25.4 9 Noroeste 18 Noroeste 0 926.7 -1.6 17
2019-10-06 16:00:00 24.1 9 Noroeste 17 Noroeste 0 927.5 -1.1 18
2019-10-06 15:00:00 25.4 3 Noroeste 14 Noroeste 0 927.7 -1.1 20
2019-10-06 14:00:00 23.6 5 Noroeste 13 Oeste 0 928.3 -0.2 23
2019-10-06 13:00:00 22.4 4 Noroeste 16 Oeste 0 928.6 0.8 26
2019-10-06 12:00:00 21.9 3 Noroeste 10 Noroeste 0 928.8 1.4 30
2019-10-06 11:00:00 18.7 4 Nordeste 10 Este 0 928.5 1.3 34
2019-10-06 10:00:00 14.2 5 Nordeste 9 Nordeste 0 927.8 0.8 43
2019-10-06 09:00:00 12.3 3 Este 8 Norte 0 927.4 0.2 46
2019-10-06 08:00:00 10.2 3 Nordeste 6 Sur 0 927.2 0.8 47
2019-10-06 07:00:00 10 5 Sur 7 Sudoeste 0 927 0 47
2019-10-06 06:00:00 10.9 4 Nordeste 8 Norte 0 927.2 0 44
2019-10-06 05:00:00 12.3 0 Calma 8 Sudoeste 0 926.4 -0.4 43
2019-10-06 04:00:00 13.7 3 Oeste 5 Sudoeste 0 927 0.1 38
2019-10-06 03:00:00 13.2 4 Sudoeste 5 Sudoeste 0 927.2 0.6 38
2019-10-06 02:00:00 14.1 5 Oeste 8 Oeste 0 926.8 0.2 35
2019-10-06 01:00:00 16.1 4 Oeste 9 Sudoeste 0 926.9 0.5 32
2019-10-06 00:00:00 15.7 5 Sudoeste 8 Sudoeste 0 926.6 0.6 31
2019-10-05 23:00:00 16.9 6 Sudoeste 10 Noroeste 0 926.6 1.7 31
2019-10-05 22:00:00 17.9 5 Noroeste 16 Oeste 0 926.4 1.9 30
2019-10-05 21:00:00 18.8 13 Oeste 17 Oeste 0 926 1.4 28
2019-10-05 20:00:00 21.1 6 Sudoeste 13 Oeste 0 924.9 0.3 24
2019-10-05 19:00:00 24.3 5 Noroeste 15 Oeste 0 924.5 -0.3 20
2019-10-05 18:00:00 25.3 9 Oeste 22 Oeste 0 924.6 -0.4 20
2019-10-05 17:00:00 25.3 7 Noroeste 19 Sur 0 924.6 -0.7 22
2019-10-05 16:00:00 24.7 6 Oeste 24 Oeste 0 924.8 -1.2 24
2019-10-05 15:00:00 24.5 6 Sur 14 Sudeste 0 925 -1 25
2019-10-05 14:00:00 22.5 4 Nordeste 14 Sudeste 0 925.3 -0.6 27
2019-10-05 13:00:00 21.9 5 Noroeste 12 Noroeste 0 926 0.5 30
2019-10-05 12:00:00 21.4 0 Calma 6 Nordeste 0 926 0.6 32
2019-10-05 11:00:00 17.7 2 Norte 5 Norte 0 925.9 0.9 36
2019-10-05 10:00:00 15.8 0 Calma 5 Este 0 925.5 0.6 40
2019-10-05 09:00:00 11.6 4 Nordeste 6 Nordeste 0 925.4 0.2 43
2019-10-05 08:00:00 10.6 0 Calma 6 Nordeste 0 925 0 43
2019-10-05 07:00:00 10.5 5 Nordeste 8 Nordeste 0 924.9 -0.5 41
2019-10-05 06:00:00 10.6 6 Nordeste 8 Nordeste 0 925.2 -0.4 40
2019-10-05 05:00:00 12.1 3 Nordeste 5 Nordeste 0 925 -0.5 37
2019-10-05 04:00:00 13.5 2 Sur 6 Este 0 925.4 -0.1 34
2019-10-05 03:00:00 14.3 0 Calma 5 Sur 0 925.6 -0.2 33
2019-10-05 02:00:00 14.5 4 Sudoeste 6 Oeste 0 925.5 0.1 30
2019-10-05 01:00:00 16.1 0 Calma 6 Noroeste 0 925.5 0.5 27
2019-10-05 00:00:00 17 0 Calma 10 Noroeste 0 925.8 0.8 26
2019-10-04 23:00:00 17.9 2 Norte 10 Oeste 0 925.4 0.6 25
2019-10-04 22:00:00 19.5 6 Oeste 11 Oeste 0 925 0.1 23
2019-10-04 21:00:00 18.7 9 Sur 12 Sur 0 925 0.1 24
2019-10-04 20:00:00 20 10 Sur 16 Sudoeste 0 924.8 0.3 23
2019-10-04 19:00:00 22.9 14 Sudoeste 22 Sudoeste 0 924.9 0 21
2019-10-04 18:00:00 24.2 15 Sudoeste 25 Sudoeste 0 924.9 -0.9 20
2019-10-04 17:00:00 25.3 9 Sudeste 22 Norte 0 924.5 -2.1 21
2019-10-04 16:00:00 25.3 6 Sudeste 22 Este 0 924.9 -2.1 22
2019-10-04 15:00:00 24.7 8 Sudeste 19 Sur 0 925.8 -1.5 22
2019-10-04 14:00:00 24.4 4 Sur 17 Sudeste 0 926.6 -0.8 23
2019-10-04 13:00:00 22.6 5 Nordeste 12 Sur 0 927 -0.5 24
2019-10-04 12:00:00 20.4 3 Norte 6 Norte 0 927.3 0.1 26
2019-10-04 11:00:00 18.3 4 Nordeste 8 Nordeste 0 927.4 0.4 34
2019-10-04 10:00:00 13.7 3 Nordeste 8 Nordeste 0 927.5 0.7 42
2019-10-04 09:00:00 10.8 6 Este 10 Este 0 927.2 0.4 46
2019-10-04 08:00:00 8.9 6 Nordeste 10 Nordeste 0 927 -0.1 48
2019-10-04 07:00:00 9.9 4 Nordeste 6 Nordeste 0 926.8 -0.6 45
2019-10-04 06:00:00 11.1 3 Este 6 Norte 0 926.8 -0.4 43
2019-10-04 05:00:00 10.7 3 Nordeste 8 Este 0 927.1 -0.7 41
2019-10-04 04:00:00 11.7 4 Nordeste 6 Norte 0 927.4 -0.3 41
2019-10-04 03:00:00 13.3 0 Calma 4 Norte 0 927.2 -0.4 35
2019-10-04 02:00:00 13 0 Calma 5 Sur 0 927.8 0.2 36
2019-10-04 01:00:00 14.5 3 Nordeste 7 Oeste 0 927.7 0.1 35
2019-10-04 00:00:00 16 6 Oeste 9 Oeste 0 927.6 0.3 32
2019-10-03 23:00:00 16.5 3 Sudoeste 5 Sudoeste 0 927.6 0.7 31
2019-10-03 22:00:00 16.6 4 Sudoeste 10 Sudoeste 0 927.6 1.1 32
2019-10-03 21:00:00 16.3 7 Sudoeste 15 Sudoeste 0 927.3 1 32
2019-10-03 20:00:00 17.9 13 Sudoeste 17 Noroeste 0 926.9 0.3 28
2019-10-03 19:00:00 22.7 9 Noroeste 18 Noroeste 0 926.5 -0.5 19
2019-10-03 18:00:00 23.3 6 Oeste 17 Oeste 0 926.3 -0.7 18
2019-10-03 17:00:00 22.6 7 Oeste 18 Sur 0 926.6 -1.3 18
2019-10-03 16:00:00 22.1 6 Noroeste 26 Noroeste 0 927 -0.9 20
2019-10-03 15:00:00 22.2 4 Sudoeste 19 Oeste 0 927 -1.1 22
2019-10-03 14:00:00 20.9 9 Noroeste 19 Noroeste 0 927.9 -0.2 23
2019-10-03 13:00:00 19.9 6 Noroeste 17 Noroeste 0 927.9 0.1 25
2019-10-03 12:00:00 19.4 5 Oeste 12 Oeste 0 928.1 0.8 26
2019-10-03 11:00:00 16.8 3 Nordeste 8 Este 0 928.1 0.9 31
2019-10-03 10:00:00 12.1 4 Nordeste 7 Nordeste 0 927.8 0.8 38
2019-10-03 09:00:00 11.6 0 Calma 4 Sudeste 0 927.3 0.2 38
2019-10-03 08:00:00 10 0 Calma 9 Nordeste 0 927.2 0.5 38
2019-10-03 07:00:00 9.7 5 Nordeste 8 Nordeste 0 927 0.3 38
2019-10-03 06:00:00 9.9 5 Nordeste 8 Nordeste 0 927.1 -0.1 36
2019-10-03 05:00:00 10.9 2 Este 9 Sudoeste 0 926.7 -0.4 35
2019-10-03 04:00:00 10.9 5 Sur 9 Sur 0 926.7 -1 36
2019-10-03 03:00:00 12.5 0 Calma 5 Sudoeste 0 927.2 -0.5 32
2019-10-03 02:00:00 12.3 3 Sudoeste 6 Sudoeste 0 927.1 -0.4 32
2019-10-03 01:00:00 12 4 Sudoeste 5 Sur 0 927.7 0.6 33
2019-10-03 00:00:00 14.4 0 Calma 4 Sur 0 927.7 1.6 30
2019-10-02 23:00:00 15 0 Calma 11 Este 0 927.5 2 28
2019-10-02 22:00:00 15.6 3 Sudoeste 11 Norte 0 927.1 1.7 27
2019-10-02 21:00:00 17.4 9 Norte 16 Norte 0 926.1 0.9 24
2019-10-02 20:00:00 18.9 11 Norte 23 Norte 0 925.5 0.1 22
2019-10-02 19:00:00 20.3 15 Norte 25 Norte 0 925.4 -0.1 21
2019-10-02 18:00:00 22.3 10 Noroeste 20 Oeste 0 925.2 -0.4 20
2019-10-02 17:00:00 22.7 6 Noroeste 23 Oeste 0 925.4 -0.3 20
2019-10-02 16:00:00 22.6 3 Oeste 19 Sudoeste 0 925.5 -0.6 22
2019-10-02 15:00:00 22.2 7 Oeste 18 Oeste 0 925.6 -0.4 21
2019-10-02 14:00:00 20.7 8 Noroeste 20 Oeste 0 925.7 -0.9 21
2019-10-02 13:00:00 19.8 9 Noroeste 17 Oeste 0 926.1 0.4 26
2019-10-02 12:00:00 18.3 8 Noroeste 16 Oeste 0 926 0.6 30
2019-10-02 11:00:00 16.2 8 Noroeste 13 Noroeste 0 926.6 1.4 35
2019-10-02 10:00:00 13.2 3 Noroeste 8 Oeste 0 925.7 0.4 44
2019-10-02 09:00:00 11.9 4 Oeste 8 Oeste 0 925.4 0.1 47
2019-10-02 08:00:00 10.9 3 Norte 7 Sudoeste 0 925.2 0.3 48
2019-10-02 07:00:00 11.4 4 Sur 10 Oeste 0 925.3 0.1 47
2019-10-02 06:00:00 12.8 6 Oeste 16 Oeste 0 925.3 -0.3 43
2019-10-02 05:00:00 12.8 13 Oeste 17 Oeste 0 924.9 -0.7 42
2019-10-02 04:00:00 12.4 13 Oeste 16 Oeste 0 925.2 -0.2 42
2019-10-02 03:00:00 13.4 13 Oeste 19 Oeste 0 925.6 0.4 40
2019-10-02 02:00:00 13.4 14 Oeste 18 Oeste 0 925.6 0.8 40
2019-10-02 01:00:00 14.3 8 Oeste 17 Oeste 0 925.4 0.3 38
2019-10-02 00:00:00 15.1 13 Oeste 17 Oeste 0 925.2 0.6 37
2019-10-01 23:00:00 15 12 Oeste 17 Oeste 0 924.8 0.8 36
2019-10-01 22:00:00 15.7 13 Oeste 19 Oeste 0 925.1 1.3 34
2019-10-01 21:00:00 16.9 13 Oeste 22 Oeste 0 924.6 1 31
2019-10-01 20:00:00 19.1 12 Oeste 28 Oeste 0 924 0.9 26
2019-10-01 19:00:00 21.2 18 Oeste 33 Oeste 0 923.8 0.5 20
2019-10-01 18:00:00 22.7 17 Oeste 31 Oeste 0 923.6 -0.1 18
2019-10-01 17:00:00 23.1 17 Oeste 35 Noroeste 0 923.1 -0.9 19
2019-10-01 16:00:00 24.9 15 Oeste 32 Oeste 0 923.3 -1.2 20
2019-10-01 15:00:00 24.2 17 Oeste 39 Oeste 0 923.7 -0.8 19
2019-10-01 14:00:00 24 15 Oeste 28 Sudoeste 0 924 -0.9 20
2019-10-01 13:00:00 22.9 18 Sudoeste 28 Sudoeste 0 924.5 0.2 23
2019-10-01 12:00:00 22.7 6 Oeste 13 Sudoeste 0 924.5 0.6 26
2019-10-01 11:00:00 20.2 6 Noroeste 11 Oeste 0 924.9 1.1 30
2019-10-01 10:00:00 18.6 3 Noroeste 9 Noroeste 0 924.3 1.1 32
2019-10-01 09:00:00 16.6 7 Noroeste 10 Noroeste 0 923.9 0.5 35
2019-10-01 08:00:00 15.6 4 Norte 9 Noroeste 0 923.8 0.1 35
2019-10-01 07:00:00 16.6 2 Sudoeste 18 Sudoeste 0 923.2 -1.1 33
2019-10-01 06:00:00 15.6 8 Sudoeste 14 Sudoeste 0 923.4 -1.1 34
2019-10-01 05:00:00 16.3 3 Este 10 Oeste 0 923.7 -1 33
2019-10-01 04:00:00 16.7 4 Oeste 8 Oeste 0 924.3 -0.5 31
2019-10-01 03:00:00 16.1 5 Norte 7 Norte 0 924.5 -1.1 29
2019-10-01 02:00:00 18.3 3 Nordeste 6 Oeste 0 924.7 -0.5 27
2019-10-01 01:00:00 19.7 4 Noroeste 8 Noroeste 0 924.8 -0.3 25
2019-10-01 00:00:00 19.4 4 Nordeste 19 Sudoeste 0 925.6 0.7 25
2019-09-30 23:00:00 21.2 0 Calma 13 Sudoeste 0 925.2 0.4 24
2019-09-30 22:00:00 20.5 12 Sudoeste 27 Sudoeste 0 925.1 0.2 23
2019-09-30 21:00:00 20.5 18 Sudoeste 23 Sudoeste 0 924.9 0.3 23
2019-09-30 20:00:00 21.8 13 Sur 23 Sur 0 924.8 -0.2 22
2019-09-30 19:00:00 24.3 15 Sur 21 Sur 0 924.9 -0.5 21
2019-09-30 18:00:00 25.6 14 Sur 23 Sur 0 924.6 -1.3 21
2019-09-30 17:00:00 26.4 5 Sur 20 Sur 0 925 -1.9 20
2019-09-30 16:00:00 27.2 5 Sur 15 Oeste 0 925.4 -1.8 20
2019-09-30 15:00:00 26.9 4 Sudeste 18 Oeste 0 925.9 -1.5 20
2019-09-30 14:00:00 25.8 0 Calma 12 Norte 0 926.9 -0.3 21
2019-09-30 13:00:00 24.4 3 Norte 9 Noroeste 0 927.2 0.3 23
2019-09-30 12:00:00 23.4 3 Este 7 Este 0 927.4 0.6 24
2019-09-30 11:00:00 20.4 2 Nordeste 6 Nordeste 0 927.2 0.8 30
2019-09-30 10:00:00 15.1 3 Nordeste 6 Nordeste 0 926.9 0.6 35
2019-09-30 09:00:00 11.9 5 Nordeste 8 Nordeste 0 926.8 0.6 39
2019-09-30 08:00:00 11.1 6 Nordeste 8 Nordeste 0 926.4 -0.1 38
2019-09-30 07:00:00 13.4 2 Sur 8 Este 0 926.3 -0.4 33
2019-09-30 06:00:00 12.8 5 Nordeste 8 Nordeste 0 926.2 -1.1 35
2019-09-30 05:00:00 13.7 2 Nordeste 7 Nordeste 0 926.5 -0.7 34
2019-09-30 04:00:00 13.3 5 Nordeste 7 Nordeste 0 926.7 -0.6 34
2019-09-30 03:00:00 14.3 5 Nordeste 6 Nordeste 0 927.3 -0.1 31
2019-09-30 02:00:00 17.3 0 Calma -- -- 0 927.2 0 26
2019-09-30 01:00:00 18.8 0 Calma 0 Calma 0 927.3 0.4 23
2019-09-30 00:00:00 19.2 0 Calma 5 Oeste 0 927.4 0.9 23
2019-09-29 23:00:00 20.4 2 Sudoeste 5 Oeste 0 927.2 0.6 22
2019-09-29 22:00:00 21.3 4 Oeste 12 Oeste 0 926.9 0.9 21
2019-09-29 21:00:00 22.8 9 Oeste 16 Sudoeste 0 926.5 0.2 19
2019-09-29 20:00:00 23.9 4 Oeste 29 Sur 0 926.6 0.4 20
2019-09-29 19:00:00 25.7 15 Sur 27 Sudoeste 0 926 -0.7 17
2019-09-29 18:00:00 26.7 18 Sudoeste 28 Oeste 0 926.3 -1.5 16
2019-09-29 17:00:00 28 15 Sudoeste 27 Sudoeste 0 926.2 -1.7 16
2019-09-29 16:00:00 27.8 12 Oeste 23 Sudoeste 0 926.7 -1.7 16
2019-09-29 15:00:00 27.4 9 Sudoeste 25 Sudoeste 0 927.8 -0.8 17
2019-09-29 14:00:00 27 5 Sur 16 Sur 0 927.9 -0.4 19
2019-09-29 13:00:00 26.1 4 Sur 14 Sudoeste 0 928.4 0.2 21
2019-09-29 12:00:00 24.6 3 Este 7 Sudeste 0 928.6 1 22
2019-09-29 11:00:00 21.9 3 Nordeste 6 Nordeste 0 928.3 0.8 25
2019-09-29 10:00:00 16.9 3 Norte 8 Nordeste 0 928.2 1.4 30
2019-09-29 09:00:00 13.2 6 Nordeste 8 Nordeste 0 927.6 0.6 33
2019-09-29 08:00:00 13 5 Este 10 Nordeste 0 927.5 0 33
2019-09-29 07:00:00 12.8 3 Este 6 Nordeste 0 926.8 -0.6 32
2019-09-29 06:00:00 13.3 0 Calma 6 Este 0 927 -0.9 30
2019-09-29 05:00:00 13.7 0 Calma 4 Nordeste 0 927.5 -0.3 28
2019-09-29 04:00:00 15.3 0 Calma 6 Sur 0 927.4 -0.3 27
2019-09-29 03:00:00 15.8 0 Calma 5 Oeste 0 927.9 -0.2 24
2019-09-29 02:00:00 17 2 Oeste 7 Sur 0 927.8 0.2 24
2019-09-29 01:00:00 18.2 0 Calma 5 Sur 0 927.7 0.2 22
2019-09-29 00:00:00 17.8 4 Sur 6 Noroeste 0 928.1 0.8 21
2019-09-28 23:00:00 19.2 4 Norte 7 Nordeste 0 927.6 0.5 21
2019-09-28 22:00:00 20.6 6 Sudoeste 15 Sur 0 927.5 0.6 20
2019-09-28 21:00:00 21.2 7 Sur 15 Sur 0 927.3 0.1 20
2019-09-28 20:00:00 23.2 7 Sur 19 Sur 0 927.1 -0.1 20
2019-09-28 19:00:00 25.2 11 Sur 18 Sur 0 926.9 -0.6 17
2019-09-28 18:00:00 27.6 4 Sur 15 Sudeste 0 927.2 -0.8 17
2019-09-28 17:00:00 26.4 8 Sudeste 18 Sudeste 0 927.2 -1.8 17
2019-09-28 16:00:00 26.5 9 Sur 21 Sur 0 927.5 -1.6 18
2019-09-28 15:00:00 25.3 8 Sur 15 Este 0 928 -1.6 19
2019-09-28 14:00:00 24.9 5 Sudeste 15 Sudeste 0 929 -0.4 20
2019-09-28 13:00:00 24.9 6 Sudeste 18 Este 0 929.1 -0.1 21
2019-09-28 12:00:00 23.9 10 Sudeste 18 Sudeste 0 929.6 0.7 23
2019-09-28 11:00:00 20.9 5 Este 10 Nordeste 0 929.4 1 28
2019-09-28 10:00:00 16 5 Nordeste 6 Nordeste 0 929.2 1.2 37
2019-09-28 09:00:00 13.6 0 Calma 5 Nordeste 0 928.9 0.9 39
2019-09-28 08:00:00 11.6 3 Nordeste 4 Nordeste 0 928.4 0.3 41
2019-09-28 07:00:00 13.6 0 Calma 3 Nordeste 0 928 -0.4 37
2019-09-28 06:00:00 13.7 0 Calma 3 Noroeste 0 928 0 36
2019-09-28 05:00:00 14.4 0 Calma 7 Sur 0 928.1 -0.3 35
2019-09-28 04:00:00 13.7 3 Sur 10 Nordeste 0 928.4 0 36
2019-09-28 03:00:00 15.3 3 Nordeste 4 Nordeste 0 928 -0.5 32
2019-09-28 02:00:00 17 0 Calma 3 Sur 0 928.4 0.1 30
2019-09-28 01:00:00 17.2 0 Calma 5 Sudoeste 0 928.4 0.5 30
2019-09-28 00:00:00 16.7 4 Sur 6 Sudoeste 0 928.5 1.2 30
2019-09-27 23:00:00 18.5 4 Sudoeste 7 Oeste 0 928.3 1.6 26
2019-09-27 22:00:00 19.9 4 Noroeste 6 Sur 0 927.9 1.4 24
2019-09-27 21:00:00 20.3 6 Sudoeste 16 Oeste 0 927.3 0.7 24
2019-09-27 20:00:00 22.4 11 Oeste 18 Oeste 0 926.7 -0.2 21
2019-09-27 19:00:00 26.6 3 Oeste 14 Norte 0 926.5 -0.4 16
2019-09-27 18:00:00 25.8 7 Noroeste 18 Sudoeste 0 926.6 -0.8 15
2019-09-27 17:00:00 26.9 4 Oeste 20 Noroeste 0 926.9 -1 15
2019-09-27 16:00:00 26.1 5 Sudoeste 21 Sudoeste 0 926.9 -1.2 17
2019-09-27 15:00:00 25.7 4 Oeste 20 Sudoeste 0 927.4 -1.1 17
2019-09-27 14:00:00 25 6 Sudoeste 19 Sudoeste 0 927.9 -0.8 19
2019-09-27 13:00:00 24.5 9 Oeste 18 Oeste 0 928.1 -0.5 20
2019-09-27 12:00:00 22.8 3 Norte 9 Nordeste 0 928.5 0.1 25
2019-09-27 11:00:00 21 4 Nordeste 8 Nordeste 0 928.7 0.7 28
2019-09-27 10:00:00 15.5 3 Norte 7 Norte 0 928.6 0.7 37
2019-09-27 09:00:00 11.8 5 Nordeste 7 Nordeste 0 928.4 0.5 43
2019-09-27 08:00:00 12.9 3 Este 4 Este 0 928 0.5 39
2019-09-27 07:00:00 13.1 0 Calma 4 Sur 0 927.9 0 39
2019-09-27 06:00:00 12.9 3 Nordeste 6 Nordeste 0 927.9 0 40
2019-09-27 05:00:00 14.2 3 Este 4 Nordeste 0 927.5 -0.5 36
2019-09-27 04:00:00 15 0 Calma 4 Sur 0 927.9 -0.3 34
2019-09-27 03:00:00 15.5 0 Calma 3 Norte 0 927.9 -0.3 34
2019-09-27 02:00:00 15.3 2 Norte 3 Sur 0 928 -0.1 32
2019-09-27 01:00:00 17 2 Sur 3 Nordeste 0 928.2 0.2 28
2019-09-27 00:00:00 18 0 Calma 3 Norte 0 928.2 0.9 26
2019-09-26 23:00:00 19.4 0 Calma 4 Noroeste 0 928.1 1.1 25
2019-09-26 22:00:00 19.8 0 Calma 12 Oeste 0 928 1.2 24
2019-09-26 21:00:00 20.2 8 Sudoeste 13 Sur 0 927.3 0.7 23
2019-09-26 20:00:00 20.9 10 Sur 17 Sur 0 927 0 22
2019-09-26 19:00:00 23.9 11 Sudoeste 20 Sur 0 926.8 0 18
2019-09-26 18:00:00 24.9 9 Sudoeste 22 Sudoeste 0 926.6 -0.4 19
2019-09-26 17:00:00 25.2 12 Sudoeste 23 Sudoeste 0 927 -1 18
2019-09-26 16:00:00 25 8 Sur 26 Sur 0 926.8 -1.8 20
2019-09-26 15:00:00 24.1 7 Sudoeste 22 Sur 0 927 -1.4 20
2019-09-26 14:00:00 24.5 5 Sur 21 Sudeste 0 928 -0.2 21
2019-09-26 13:00:00 23.4 9 Sudeste 19 Sudeste 0 928.6 0.6 22
2019-09-26 12:00:00 21.9 10 Sudeste 17 Sudeste 0 928.4 0.6 23
2019-09-26 11:00:00 20.2 5 Este 12 Este 0 928.2 1 28
2019-09-26 10:00:00 16.1 5 Nordeste 9 Este 0 928 1.1 37
2019-09-26 09:00:00 11.6 6 Nordeste 9 Nordeste 0 927.8 1 46
2019-09-26 08:00:00 11.2 3 Nordeste 7 Nordeste 0 927.2 0.4 46
2019-09-26 07:00:00 12.6 0 Calma 3 Sur 0 926.9 0.2 41
2019-09-26 06:00:00 12.4 0 Calma 3 Nordeste 0 926.8 0 41
2019-09-26 05:00:00 12.4 0 Calma 5 Sur 0 926.8 -0.4 40
2019-09-26 04:00:00 12.9 0 Calma 4 Norte 0 926.7 -0.8 38
2019-09-26 03:00:00 13.8 0 Calma 6 Sudoeste 0 926.8 -0.5 36
2019-09-26 02:00:00 12.5 5 Sudoeste 6 Sudoeste 0 927.2 0.3 37
2019-09-26 01:00:00 14.8 4 Nordeste 10 Norte 0 927.5 0.7 33
2019-09-26 00:00:00 15.1 5 Sudoeste 7 Sudoeste 0 927.3 1 31
2019-09-25 23:00:00 16 7 Sudoeste 8 Sudoeste 0 926.9 0.9 28
2019-09-25 22:00:00 16.8 4 Oeste 13 Sudoeste 0 926.8 1.4 26
2019-09-25 21:00:00 17.3 7 Sudoeste 13 Noroeste 0 926.3 1.2 25
2019-09-25 20:00:00 20.7 8 Noroeste 18 Noroeste 0 926 0.6 21
2019-09-25 19:00:00 22.4 10 Noroeste 21 Oeste 0 925.4 -0.3 20
2019-09-25 18:00:00 23 12 Noroeste 21 Oeste 0 925.1 -0.7 19
2019-09-25 17:00:00 23 10 Noroeste 23 Noroeste 0 925.4 -0.8 20
2019-09-25 16:00:00 23.2 10 Noroeste 24 Noroeste 0 925.7 -1.1 20
2019-09-25 15:00:00 22.1 10 Oeste 26 Noroeste 0 925.8 -1.5 22
2019-09-25 14:00:00 21.6 8 Noroeste 16 Oeste 0 926.2 -0.9 28
2019-09-25 13:00:00 19.9 4 Noroeste 15 Oeste 0 926.8 0.1 33
2019-09-25 12:00:00 18.8 4 Noroeste 12 Noroeste 0 927.3 0.9 39
2019-09-25 11:00:00 17 5 Noroeste 13 Noroeste 0 927.1 0.8 47
2019-09-25 10:00:00 15.5 7 Noroeste 14 Sudoeste 0 926.7 0.7 52
2019-09-25 09:00:00 14.5 3 Sudoeste 6 Sudoeste 0 926.4 0.3 58
2019-09-25 08:00:00 13.9 3 Oeste 12 Oeste 0 926.3 0.6 61
2019-09-25 07:00:00 14.1 6 Oeste 14 Noroeste 0 926 -0.5 60
2019-09-25 06:00:00 14.2 5 Noroeste 11 Sudoeste 0 926.1 -0.9 61
2019-09-25 05:00:00 14.2 5 Sudoeste 17 Oeste 0 925.7 -1.4 60
2019-09-25 04:00:00 14.6 10 Oeste 19 Oeste 0 926.5 -0.6 57
2019-09-25 03:00:00 15.3 12 Oeste 18 Oeste 0 927 -0.6 48
2019-09-25 02:00:00 15.1 7 Oeste 10 Sudoeste 0 927.1 -0.5 43
2019-09-25 01:00:00 16.1 4 Sudoeste 10 Oeste 0 927.1 -0.4 36
2019-09-25 00:00:00 17.2 4 Oeste 11 Oeste 0 927.6 0.8 31
2019-09-24 23:00:00 16.7 6 Sur 9 Sur 0 927.6 1.3 31
2019-09-24 22:00:00 17.6 5 Oeste 8 Oeste 0 927.5 1.3 27
2019-09-24 21:00:00 19.3 8 Oeste 14 Oeste 0 926.8 0.3 23
2019-09-24 20:00:00 22.4 9 Oeste 23 Oeste 0 926.3 -0.5 19
2019-09-24 19:00:00 24.2 14 Noroeste 31 Noroeste 0 926.2 -1.3 17
2019-09-24 18:00:00 25.5 7 Noroeste 23 Oeste 0 926.5 -1.2 18
2019-09-24 17:00:00 25.2 7 Noroeste 21 Oeste 0 926.8 -1.7 18
2019-09-24 16:00:00 25.6 9 Noroeste 24 Oeste 0 927.5 -1.6 17
2019-09-24 15:00:00 25 9 Oeste 24 Oeste 0 927.7 -2.2 17
2019-09-24 14:00:00 24.4 12 Sudoeste 24 Oeste 0 928.5 -1.4 19
2019-09-24 13:00:00 22.4 12 Oeste 21 Oeste 0 929.1 -0.1 21
2019-09-24 12:00:00 20.3 10 Sudoeste 19 Sudoeste 0 929.9 1.5 26
2019-09-24 11:00:00 18.4 4 Oeste 8 Oeste 0 929.9 1.3 32
2019-09-24 10:00:00 16.1 0 Calma 7 Nordeste 0 929.2 0.7 42
2019-09-24 09:00:00 11 5 Norte 6 Norte 0 928.4 0.5 50
2019-09-24 08:00:00 11.8 2 Sur 3 Sur 0 928.6 0.4 50
2019-09-24 07:00:00 11.7 0 Calma 4 Sudoeste 0 928.5 0.1 49
2019-09-24 06:00:00 12.3 3 Sudoeste 4 Sur 0 927.9 -0.8 46
2019-09-24 05:00:00 12.7 0 Calma 3 Sudoeste 0 928.2 -0.8 45
2019-09-24 04:00:00 11.9 3 Sudoeste 4 Sudoeste 0 928.4 -1.1 48
2019-09-24 03:00:00 13.4 0 Calma -- -- 0 928.7 -0.7 44
2019-09-24 02:00:00 13.8 0 Calma 5 Sur 0 929 -0.8 42
2019-09-24 01:00:00 13.8 4 Sur 5 Sur 0 929.5 0.2 40
2019-09-24 00:00:00 15.5 2 Norte 5 Este 0 929.4 0.4 36
2019-09-23 23:00:00 15.3 2 Sur 5 Sur 0 929.8 1.3 36
2019-09-23 22:00:00 16.1 3 Sudoeste 6 Sudoeste 0 929.3 1.2 34
2019-09-23 21:00:00 18.5 5 Norte 14 Norte 0 929 0.8 27
2019-09-23 20:00:00 20.7 3 Noroeste 9 Oeste 0 928.5 0.6 22
2019-09-23 19:00:00 22.1 4 Oeste 11 Noroeste 0 928.1 -0.1 20
2019-09-23 18:00:00 22.5 6 Oeste 14 Noroeste 0 928.2 -0.2 20
2019-09-23 17:00:00 21.9 4 Noroeste 17 Noroeste 0 927.9 -0.7 22
2019-09-23 16:00:00 21.9 3 Noroeste 15 Oeste 0 928.2 -1.1 24
2019-09-23 15:00:00 21 5 Oeste 16 Sudoeste 0 928.4 -1.1 26
2019-09-23 14:00:00 19.5 6 Sudoeste 13 Sudoeste 0 928.6 -1.3 29
2019-09-23 13:00:00 18.2 4 Nordeste 12 Nordeste 0 929.3 0 31
2019-09-23 12:00:00 16.9 3 Este 11 Este 0 929.5 0.9 34
2019-09-23 11:00:00 15.3 5 Norte 10 Norte 0 929.9 1.3 37
2019-09-23 10:00:00 13.7 2 Nordeste 4 Nordeste 0 929.3 1.2 45
2019-09-23 09:00:00 10.9 0 Calma 5 Sudoeste 0 928.6 1 55
2019-09-23 08:00:00 8.6 0 Calma 3 Oeste 0 928.6 1.1 58
2019-09-23 07:00:00 9.9 0 Calma 3 Noroeste 0 928.1 0.9 54
2019-09-23 06:00:00 9.6 2 Sudoeste 4 Sudoeste 0 927.6 0 55
2019-09-23 05:00:00 9.5 4 Oeste 8 Sudoeste 0 927.5 -0.1 55
2019-09-23 04:00:00 10.3 3 Oeste 8 Oeste 0 927.2 -0.7 53
2019-09-23 03:00:00 10.4 6 Sudoeste 9 Sudoeste 0 927.6 0 49
2019-09-23 02:00:00 10.7 4 Sudoeste 8 Sudoeste 0 927.6 0.4 51
2019-09-23 01:00:00 11.6 6 Oeste 9 Oeste 0 927.9 1 46
2019-09-23 00:00:00 11.8 8 Oeste 12 Oeste 0 927.6 0.9 45
2019-09-22 23:00:00 12.7 4 Sudoeste 6 Sudoeste 0 927.2 1.9 44
2019-09-22 22:00:00 13 4 Sudoeste 9 Sudoeste 0 926.9 1.6 42
2019-09-22 21:00:00 13.6 6 Oeste 17 Noroeste 0 926.7 1.8 37
2019-09-22 20:00:00 15.7 12 Oeste 24 Oeste 0 925.3 0.9 32
2019-09-22 19:00:00 17.8 13 Oeste 30 Sudoeste 0 925.3 1 34
2019-09-22 18:00:00 18.2 19 Sudoeste 31 Sudoeste 0 924.9 -0.1 37
2019-09-22 17:00:00 18.2 17 Sudoeste 28 Sudoeste 0 924.4 0 42
2019-09-22 16:00:00 18.4 21 Sudoeste 36 Sudoeste 0 924.3 -0.2 41
2019-09-22 15:00:00 18.7 20 Sudoeste 30 Sudoeste 0 925 0.4 44
2019-09-22 14:00:00 16.3 21 Sudoeste 29 Sudoeste 0 924.4 0.2 48
2019-09-22 13:00:00 15.3 17 Sudoeste 28 Sudoeste 0 924.5 0.3 51
2019-09-22 12:00:00 15.9 17 Sudoeste 36 Sudoeste 0 924.6 1.2 46
2019-09-22 11:00:00 15.6 22 Sudoeste 36 Sudoeste 0 924.2 1.3 48
2019-09-22 10:00:00 14.4 10 Sudoeste 23 Sudoeste 0 924.2 1 54
2019-09-22 09:00:00 14 12 Sudoeste 33 Sudoeste 0 923.4 0.4 54
2019-09-22 08:00:00 14.2 8 Sudoeste 31 Sur 0 922.9 0 56
2019-09-22 07:00:00 14.3 0 Calma 17 Sudoeste 0 923.2 0.1 57
2019-09-22 06:00:00 14 5 Oeste 26 Sudoeste 0 923 -0.1 56
2019-09-22 05:00:00 13.4 11 Sudoeste 18 Sudoeste 0 922.9 -0.2 56
2019-09-22 04:00:00 13.8 15 Sudoeste 26 Sudoeste 0 923.1 -0.2 56
2019-09-22 03:00:00 14.5 8 Sudoeste 13 Sudoeste 0 923.1 -0.8 54
2019-09-22 02:00:00 14.8 7 Sudoeste 22 Sur 0 923.1 -0.9 53
2019-09-22 01:00:00 15.3 3 Sur 10 Sudeste 0 923.3 0 51
2019-09-22 00:00:00 14.5 5 Sur 15 Sur 0 923.9 1 51
2019-09-21 23:00:00 15.1 7 Sudoeste 14 Sudoeste 0 924 1.8 48
2019-09-21 22:00:00 15.7 7 Sudoeste 12 Sudoeste 0 923.3 1 48
2019-09-21 21:00:00 15.9 9 Sudoeste 19 Sudoeste 0 922.9 0.5 47
2019-09-21 20:00:00 16.4 14 Sudoeste 27 Sudoeste 0 922.2 -0.4 43
2019-09-21 19:00:00 16.8 13 Sudoeste 25 Sudoeste 0 922.3 -0.3 41
2019-09-21 18:00:00 17.2 12 Sudoeste 41 Sudoeste 0 922.4 -0.2 42
2019-09-21 17:00:00 18.4 18 Sudoeste 28 Sudoeste 0 922.6 -0.7 36
2019-09-21 16:00:00 18.2 20 Sudoeste 29 Sudoeste 0 922.6 -1.1 37
2019-09-21 15:00:00 18.5 18 Sur 28 Sur 0 922.6 -1.5 42
2019-09-21 14:00:00 16.9 12 Sur 19 Sur 0 923.3 -0.3 48
2019-09-21 13:00:00 16.5 13 Sur 22 Sudoeste 0 923.7 0.5 46
2019-09-21 12:00:00 17.5 13 Sur 19 Sur 0 924.1 1.1 44
2019-09-21 11:00:00 17.6 5 Este 11 Este 0 923.6 0.7 51
2019-09-21 10:00:00 16.5 2 Sur 8 Sur 0 923.2 0.2 51
2019-09-21 09:00:00 15.3 2 Sudeste 6 Nordeste 0 923 -0.1 61
2019-09-21 08:00:00 14.6 3 Norte 8 Norte 0 922.9 -0.1 62
2019-09-21 07:00:00 14.9 3 Este 6 Sudoeste 0 923 0 60
2019-09-21 06:00:00 14.3 4 Sudoeste 15 Sudoeste 0 923.1 -0.1 59
2019-09-21 05:00:00 15 9 Oeste 17 Oeste 0 923 -0.7 57
2019-09-21 04:00:00 15.7 3 Oeste 22 Sudoeste 0 923 -0.4 57
2019-09-21 03:00:00 14.7 14 Oeste 24 Sudoeste 0.5 923.2 -0.3 57
2019-09-21 02:00:00 15.2 16 Sudoeste 24 Oeste 0 923.7 0.2 53
2019-09-21 01:00:00 15.6 12 Sudoeste 22 Sudoeste 0 923.4 0.3 50
2019-09-21 00:00:00 15.8 15 Sudoeste 21 Sudoeste 0 923.5 0.6 49
2019-09-20 23:00:00 16.3 14 Sudoeste 22 Sudoeste 0 923.5 1 46
2019-09-20 22:00:00 17.8 6 Oeste 14 Oeste 0 923.1 0.3 40
2019-09-20 21:00:00 19 8 Oeste 18 Oeste 0 922.9 0.2 36
2019-09-20 20:00:00 18.9 8 Sudoeste 21 Sudoeste 0 922.5 -0.4 36
2019-09-20 19:00:00 19.6 14 Sudoeste 28 Sudoeste 0 922.8 0.1 34
2019-09-20 18:00:00 19.8 21 Sudoeste 27 Sudoeste 0 922.7 -0.6 32
2019-09-20 17:00:00 21.1 19 Sur 26 Sur 0 922.9 -1 31
2019-09-20 16:00:00 22.7 7 Sur 22 Sur 0 922.7 -1.2 28
2019-09-20 15:00:00 22.7 12 Sudeste 23 Sur 0 923.3 -1.6 28
2019-09-20 14:00:00 22.3 10 Sudeste 18 Sur 0 923.9 -0.7 32
2019-09-20 13:00:00 21.6 9 Sudeste 16 Este 0 923.9 -0.6 37
2019-09-20 12:00:00 19.8 8 Este 16 Sudeste 0 924.9 0.5 40
2019-09-20 11:00:00 18.7 9 Este 19 Sudeste 0 924.6 0.4 42
2019-09-20 10:00:00 17.3 5 Nordeste 12 Este 0 924.5 0 42
2019-09-20 09:00:00 15.3 5 Nordeste 9 Sudeste 0 924.4 0 48
2019-09-20 08:00:00 15.2 7 Este 13 Sudeste 0 924.2 -0.3 51
2019-09-20 07:00:00 14.8 12 Sudeste 19 Sudeste 0 924.5 -0.1 55
2019-09-20 06:00:00 16.1 4 Este 12 Este 0 924.4 -0.4 48
2019-09-20 05:00:00 16.8 6 Sudeste 12 Este 0 924.5 -0.2 42
2019-09-20 04:00:00 16.9 8 Este 11 Sudeste 0 924.6 -0.5 34
2019-09-20 03:00:00 16.7 10 Sudeste 10 Sudeste 0 924.8 -0.6 32
2019-09-20 02:00:00 18 3 Sudeste 4 Sudeste 0 924.7 -0.4 29
2019-09-20 01:00:00 17.7 3 Sur 9 Sur 0 925.1 0 28
2019-09-20 00:00:00 17.8 8 Sur 17 Sudeste 0 925.4 0.8 30